Time;durP1;ratioP1;P1;durP2;ratioP2;P2;SDS_P1;SDS_P2;PMS_P1;PMS_P2;Temp;Humidity;BMP_temperature;BMP_pressure;BME280_temperature;BME280_humidity;BME280_pressure;Samples;Min_cycle;Max_cycle;Signal;HPM_P1;HPM_P2
2021/07/15 00:00:36;;;;;;;11.90;9.27;;;21.50;98.30;;;;;;4143694;28;21408;-82
2021/07/15 00:02:40;;;;;;;9.43;8.57;;;21.50;98.30;;;;;;4141909;28;20480;-83
2021/07/15 00:04:43;;;;;;;8.60;7.80;;;21.40;98.30;;;;;;4147981;28;21020;-84
2021/07/15 00:06:48;;;;;;;9.33;8.37;;;21.40;98.30;;;;;;4147318;28;20466;-84
2021/07/15 00:08:52;;;;;;;9.60;8.60;;;21.30;98.30;;;;;;4149814;28;20590;-84
2021/07/15 00:10:58;;;;;;;10.60;8.67;;;21.40;98.30;;;;;;4136769;28;20834;-83
2021/07/15 00:13:01;;;;;;;8.57;7.77;;;21.30;98.30;;;;;;4136496;28;20554;-83
2021/07/15 00:15:08;;;;;;;10.23;8.87;;;21.40;98.30;;;;;;4149206;28;20490;-83
2021/07/15 00:17:11;;;;;;;9.70;8.70;;;21.40;98.30;;;;;;4136257;28;20471;-83
2021/07/15 00:19:15;;;;;;;11.33;8.90;;;21.40;98.30;;;;;;4146113;28;20498;-83
2021/07/15 00:21:21;;;;;;;10.80;8.67;;;21.40;98.30;;;;;;4143949;28;20478;-84
2021/07/15 00:23:26;;;;;;;9.03;8.13;;;21.40;98.30;;;;;;4149611;28;20698;-83
2021/07/15 00:25:29;;;;;;;9.40;7.40;;;21.40;98.30;;;;;;4150744;28;20537;-83
2021/07/15 00:27:32;;;;;;;8.97;8.17;;;21.40;98.30;;;;;;4155306;28;20469;-84
2021/07/15 00:29:36;;;;;;;8.30;7.43;;;21.40;98.30;;;;;;4154033;28;20504;-83
2021/07/15 00:31:39;;;;;;;9.53;7.97;;;21.30;98.30;;;;;;4156386;28;20470;-84
2021/07/15 00:33:42;;;;;;;8.80;7.77;;;21.40;98.30;;;;;;4154579;28;20523;-84
2021/07/15 00:35:45;;;;;;;8.67;7.80;;;21.50;98.30;;;;;;4157429;28;20486;-84
2021/07/15 00:37:48;;;;;;;9.43;7.07;;;21.50;98.30;;;;;;4153458;28;20474;-83
2021/07/15 00:39:52;;;;;;;8.70;7.23;;;21.50;98.30;;;;;;4144863;28;20532;-83
2021/07/15 00:41:55;;;;;;;9.20;7.50;;;21.50;98.30;;;;;;4141985;28;20467;-83
2021/07/15 00:43:59;;;;;;;7.43;6.67;;;21.50;98.30;;;;;;4142252;28;20864;-83
2021/07/15 00:46:02;;;;;;;8.00;7.30;;;21.50;98.30;;;;;;4144229;28;20466;-83
2021/07/15 00:48:05;;;;;;;8.20;7.40;;;21.60;98.30;;;;;;4146575;28;20481;-83
2021/07/15 00:50:10;;;;;;;7.53;6.60;;;21.60;98.30;;;;;;4141517;28;20481;-83
2021/07/15 00:52:17;;;;;;;8.13;6.50;;;21.50;98.30;;;;;;4145072;28;21003;-83
2021/07/15 00:54:21;;;;;;;11.17;7.80;;;21.40;98.30;;;;;;4141890;28;20491;-83
2021/07/15 00:56:26;;;;;;;8.70;7.27;;;21.40;98.30;;;;;;4141927;28;20473;-83
2021/07/15 00:58:31;;;;;;;10.23;7.33;;;21.30;98.30;;;;;;4143498;28;20478;-83
2021/07/15 01:00:35;;;;;;;7.60;6.97;;;21.30;98.30;;;;;;4146971;28;20470;-84
2021/07/15 01:02:38;;;;;;;7.27;6.50;;;21.40;98.30;;;;;;4139823;28;20477;-83
2021/07/15 01:04:41;;;;;;;8.50;6.20;;;21.50;98.30;;;;;;4144263;28;20529;-84
2021/07/15 01:06:44;;;;;;;7.10;6.40;;;21.60;98.30;;;;;;4140914;28;20566;-84
2021/07/15 01:08:47;;;;;;;6.97;6.37;;;21.60;98.30;;;;;;4139668;28;20469;-83
2021/07/15 01:10:53;;;;;;;8.30;6.00;;;21.70;98.30;;;;;;4142977;28;20546;-83
2021/07/15 01:13:12;;;;;;;7.10;6.50;;;21.70;98.30;;;;;;4146492;28;20468;-83
2021/07/15 01:15:17;;;;;;;8.17;6.17;;;21.80;98.30;;;;;;4139917;28;20588;-83
2021/07/15 01:17:24;;;;;;;8.17;7.37;;;21.80;98.30;;;;;;4145060;28;20465;-83
2021/07/15 01:20:10;;;;;;;10.50;8.07;;;21.80;98.30;;;;;;4146123;28;20558;-83
2021/07/15 01:22:18;;;;;;;8.30;7.03;;;21.80;98.30;;;;;;4078753;28;20547;-83
2021/07/15 01:24:58;;;;;;;9.80;8.27;;;21.80;98.30;;;;;;4140025;28;20491;-83
2021/07/15 01:27:42;;;;;;;8.40;7.10;;;21.90;98.30;;;;;;4141720;28;21426;-83
2021/07/15 01:30:06;;;;;;;9.23;7.40;;;21.90;98.30;;;;;;4145654;28;20842;-83
2021/07/15 01:32:11;;;;;;;10.10;9.10;;;21.90;98.30;;;;;;4143095;28;20573;-84
2021/07/15 01:34:15;;;;;;;10.13;9.10;;;21.80;98.30;;;;;;4143299;28;20527;-83
2021/07/15 01:36:22;;;;;;;14.37;8.93;;;21.70;98.30;;;;;;4140707;28;20470;-83
2021/07/15 01:38:28;;;;;;;10.40;9.30;;;21.60;98.30;;;;;;4144710;28;20466;-83
2021/07/15 01:40:40;;;;;;;9.90;8.90;;;21.60;98.30;;;;;;4145034;28;20811;-83
2021/07/15 01:42:43;;;;;;;9.53;8.53;;;21.40;98.30;;;;;;4145541;28;20466;-83
2021/07/15 01:44:47;;;;;;;13.63;10.03;;;21.30;98.30;;;;;;4140742;28;20486;-83
2021/07/15 01:46:52;;;;;;;12.13;8.80;;;21.20;98.30;;;;;;4139952;28;20474;-83
2021/07/15 01:48:55;;;;;;;10.70;9.40;;;21.20;98.30;;;;;;4142845;28;20472;-83
2021/07/15 01:50:59;;;;;;;12.07;9.30;;;21.20;98.30;;;;;;4141221;28;20466;-83
2021/07/15 01:53:03;;;;;;;12.50;10.90;;;21.10;98.30;;;;;;4141407;28;20510;-83
2021/07/15 01:55:07;;;;;;;11.27;9.20;;;21.10;98.30;;;;;;4145454;28;20498;-83
2021/07/15 01:57:12;;;;;;;11.37;10.20;;;21.10;98.30;;;;;;4138916;28;20463;-83
2021/07/15 01:59:19;;;;;;;13.60;10.40;;;21.10;98.30;;;;;;4144106;28;20504;-83
2021/07/15 02:01:23;;;;;;;16.73;10.20;;;21.10;98.30;;;;;;4141808;28;20466;-83
2021/07/15 02:03:29;;;;;;;11.23;9.57;;;21.00;98.30;;;;;;4137898;28;20458;-84
2021/07/15 02:05:33;;;;;;;11.43;9.53;;;21.00;98.30;;;;;;4144406;28;20494;-83
2021/07/15 02:07:38;;;;;;;11.70;10.23;;;21.00;98.30;;;;;;4147515;28;20473;-83
2021/07/15 02:09:42;;;;;;;15.27;10.27;;;21.00;98.30;;;;;;4139888;28;20470;-83
2021/07/15 02:11:49;;;;;;;17.73;9.90;;;21.00;98.30;;;;;;4144916;28;20898;-83
2021/07/15 02:13:54;;;;;;;11.83;10.50;;;21.00;98.30;;;;;;4140972;28;20499;-83
2021/07/15 02:15:59;;;;;;;11.30;10.10;;;21.00;98.30;;;;;;4141744;28;20546;-84
2021/07/15 02:18:03;;;;;;;11.90;8.80;;;21.00;98.30;;;;;;4141631;28;21024;-83
2021/07/15 02:20:12;;;;;;;12.40;9.07;;;21.00;98.30;;;;;;4143188;28;20537;-83
2021/07/15 02:22:16;;;;;;;10.30;8.57;;;21.00;98.30;;;;;;4145403;28;20468;-83
2021/07/15 02:24:23;;;;;;;13.47;8.57;;;20.90;98.30;;;;;;4142596;28;20494;-83
2021/07/15 02:26:27;;;;;;;8.80;7.83;;;20.90;98.30;;;;;;4141683;28;20563;-83
2021/07/15 02:28:30;;;;;;;11.53;8.87;;;20.80;98.30;;;;;;4140695;28;20477;-83
2021/07/15 02:30:33;;;;;;;8.30;7.00;;;20.90;98.30;;;;;;4144436;28;20490;-83
2021/07/15 02:32:47;;;;;;;7.33;6.50;;;20.80;98.30;;;;;;4140359;28;20838;-83
2021/07/15 02:35:01;;;;;;;9.73;6.07;;;20.80;98.30;;;;;;4140926;28;20834;-84
2021/07/15 02:37:06;;;;;;;9.83;6.17;;;20.90;98.30;;;;;;4140662;28;20558;-84
2021/07/15 02:39:11;;;;;;;9.93;6.57;;;20.80;98.30;;;;;;4138944;28;20561;-83
2021/07/15 02:41:14;;;;;;;8.10;6.67;;;20.80;98.30;;;;;;4143516;28;20472;-84
2021/07/15 02:43:17;;;;;;;7.27;5.50;;;20.80;98.30;;;;;;4139959;28;20490;-83
2021/07/15 02:45:22;;;;;;;6.97;4.97;;;20.70;98.30;;;;;;4139179;28;20544;-84
2021/07/15 02:47:25;;;;;;;7.20;4.97;;;20.70;98.30;;;;;;4141854;28;20474;-84
2021/07/15 02:49:28;;;;;;;6.13;5.07;;;20.70;98.30;;;;;;4144546;28;20464;-83
2021/07/15 02:51:31;;;;;;;8.03;5.00;;;20.70;98.30;;;;;;4146249;28;20494;-84
2021/07/15 02:53:36;;;;;;;4.73;4.30;;;20.70;98.30;;;;;;4146918;28;20477;-84
2021/07/15 02:55:42;;;;;;;4.73;4.10;;;20.60;98.30;;;;;;4139911;28;21067;-83
2021/07/15 02:57:53;;;;;;;5.27;4.00;;;20.60;98.30;;;;;;4145269;28;20512;-83
2021/07/15 03:00:02;;;;;;;4.30;3.90;;;20.60;98.30;;;;;;4140356;28;21413;-83
2021/07/15 03:02:11;;;;;;;4.03;3.63;;;20.60;98.30;;;;;;4142959;28;20505;-83
2021/07/15 03:04:23;;;;;;;5.77;4.30;;;20.60;98.30;;;;;;4143325;28;20613;-83
2021/07/15 03:06:34;;;;;;;7.40;4.73;;;20.60;98.30;;;;;;4144178;28;20477;-82
2021/07/15 03:08:44;;;;;;;5.27;4.47;;;20.60;98.30;;;;;;4139364;28;20463;-83
2021/07/15 03:10:48;;;;;;;4.80;3.77;;;20.70;98.30;;;;;;4144683;28;20468;-82
2021/07/15 03:12:53;;;;;;;4.87;4.20;;;20.60;98.30;;;;;;4143082;28;20480;-83
2021/07/15 03:14:57;;;;;;;5.90;4.50;;;20.70;98.30;;;;;;4144703;28;21020;-83
2021/07/15 03:17:02;;;;;;;6.80;4.10;;;20.70;98.30;;;;;;4150690;28;20485;-83
2021/07/15 03:19:06;;;;;;;4.13;3.80;;;20.70;98.30;;;;;;4152923;28;20467;-83
2021/07/15 03:21:11;;;;;;;4.13;3.70;;;20.80;98.30;;;;;;4154236;28;20497;-83
2021/07/15 03:23:17;;;;;;;4.57;4.00;;;20.80;98.30;;;;;;4153466;28;20462;-83
2021/07/15 03:25:24;;;;;;;4.90;4.10;;;20.90;98.30;;;;;;4154174;28;20490;-83
2021/07/15 03:27:30;;;;;;;4.70;4.20;;;20.80;98.30;;;;;;4154114;28;20455;-83
2021/07/15 03:29:35;;;;;;;6.23;4.30;;;20.80;98.30;;;;;;4151916;28;20476;-83
2021/07/15 03:31:37;;;;;;;5.77;3.93;;;20.80;98.30;;;;;;4144458;28;20510;-83
2021/07/15 03:33:41;;;;;;;4.40;4.00;;;20.80;98.30;;;;;;4143380;28;20541;-84
2021/07/15 03:35:47;;;;;;;4.30;3.90;;;20.90;98.30;;;;;;4145492;28;20577;-83
2021/07/15 03:37:51;;;;;;;5.33;3.93;;;20.90;98.30;;;;;;4140434;28;20484;-83
2021/07/15 03:39:56;;;;;;;4.50;4.10;;;20.90;98.30;;;;;;4139585;28;20594;-83
2021/07/15 03:42:00;;;;;;;5.97;4.20;;;20.90;98.30;;;;;;4142348;28;20485;-83
2021/07/15 03:44:03;;;;;;;4.70;4.30;;;20.80;98.30;;;;;;4140869;28;20466;-83
2021/07/15 03:46:07;;;;;;;5.30;4.30;;;20.80;98.30;;;;;;4145704;28;20933;-83
2021/07/15 03:48:12;;;;;;;5.27;4.77;;;20.70;98.30;;;;;;4141253;28;20539;-83
2021/07/15 03:50:19;;;;;;;5.03;4.53;;;20.60;98.30;;;;;;4138066;28;20459;-83
2021/07/15 03:52:23;;;;;;;8.10;5.03;;;20.60;98.30;;;;;;4142072;28;20481;-83
2021/07/15 03:54:26;;;;;;;4.87;4.07;;;20.50;98.30;;;;;;4137708;28;20505;-83
2021/07/15 03:56:31;;;;;;;5.23;4.73;;;20.50;98.30;;;;;;4142691;28;20465;-83
2021/07/15 03:58:39;;;;;;;7.30;5.10;;;20.40;98.30;;;;;;4139665;28;20474;-83
2021/07/15 04:00:45;;;;;;;5.20;4.70;;;20.40;98.30;;;;;;4135243;28;20492;-83
2021/07/15 04:02:49;;;;;;;5.10;4.70;;;20.30;98.30;;;;;;4136478;28;20503;-84
2021/07/15 04:04:55;;;;;;;4.93;4.53;;;20.30;98.30;;;;;;4144154;28;20495;-83
2021/07/15 04:07:01;;;;;;;5.10;4.60;;;20.40;98.30;;;;;;4144820;28;20537;-83
2021/07/15 04:09:08;;;;;;;5.90;4.47;;;20.40;98.30;;;;;;4136988;28;20471;-83
2021/07/15 04:11:15;;;;;;;5.63;5.10;;;20.30;98.30;;;;;;4138684;28;20481;-83
2021/07/15 04:13:19;;;;;;;6.00;4.60;;;20.40;98.30;;;;;;4137037;28;20470;-83
2021/07/15 04:15:38;;;;;;;5.00;4.60;;;20.30;98.30;;;;;;4139620;28;20994;-84
2021/07/15 04:17:50;;;;;;;4.47;4.07;;;20.30;98.30;;;;;;4137443;28;20474;-83
2021/07/15 04:19:59;;;;;;;4.47;4.07;;;20.30;98.30;;;;;;4137527;28;20469;-84
2021/07/15 04:22:05;;;;;;;4.30;3.90;;;20.30;98.30;;;;;;4145824;28;20468;-83
2021/07/15 04:24:09;;;;;;;10.90;4.50;;;20.30;98.30;;;;;;4144238;28;20459;-83
2021/07/15 04:26:15;;;;;;;4.30;4.00;;;20.30;98.30;;;;;;4148185;28;20473;-83
2021/07/15 04:28:18;;;;;;;4.93;4.53;;;20.30;98.30;;;;;;4143083;28;20483;-83
2021/07/15 04:30:23;;;;;;;5.30;3.90;;;20.30;98.30;;;;;;4150102;28;20502;-83
2021/07/15 04:32:28;;;;;;;4.43;4.03;;;20.30;98.30;;;;;;4146536;28;20987;-83
2021/07/15 04:34:32;;;;;;;4.77;4.37;;;20.30;98.30;;;;;;4144233;28;20497;-83
2021/07/15 04:36:36;;;;;;;4.57;3.57;;;20.40;98.30;;;;;;4147066;28;21028;-83
2021/07/15 04:38:39;;;;;;;5.60;4.03;;;20.40;98.30;;;;;;4144210;28;20470;-84
2021/07/15 04:40:42;;;;;;;4.03;3.63;;;20.40;98.30;;;;;;4140566;28;20482;-83
2021/07/15 04:42:48;;;;;;;4.30;3.90;;;20.40;98.30;;;;;;4145256;28;20945;-83
2021/07/15 04:44:52;;;;;;;7.73;3.93;;;20.30;98.30;;;;;;4144532;28;20582;-82
2021/07/15 04:46:57;;;;;;;5.10;3.90;;;20.40;98.30;;;;;;4139546;28;20959;-82
2021/07/15 04:49:01;;;;;;;5.03;4.40;;;20.50;98.30;;;;;;4147932;28;20513;-81
2021/07/15 04:51:06;;;;;;;3.70;3.40;;;20.60;98.30;;;;;;4143187;28;20799;-82
2021/07/15 04:53:11;;;;;;;4.53;3.93;;;20.70;98.30;;;;;;4144962;28;20943;-82
2021/07/15 04:55:17;;;;;;;3.87;3.57;;;20.70;98.30;;;;;;4139794;28;20496;-82
2021/07/15 04:57:20;;;;;;;3.90;3.50;;;20.80;98.30;;;;;;4141583;28;20546;-82
2021/07/15 04:59:24;;;;;;;4.73;3.40;;;20.90;98.30;;;;;;4145013;28;20501;-83
2021/07/15 05:01:27;;;;;;;4.70;3.90;;;21.00;98.30;;;;;;4144317;28;20516;-84
2021/07/15 05:03:33;;;;;;;7.23;4.20;;;21.00;98.30;;;;;;4144867;28;20475;-83
2021/07/15 05:05:37;;;;;;;4.87;3.77;;;21.00;98.30;;;;;;4139744;28;20923;-83
2021/07/15 05:07:43;;;;;;;4.13;3.73;;;21.00;98.30;;;;;;4137051;28;20834;-83
2021/07/15 05:09:46;;;;;;;4.33;3.73;;;21.00;98.30;;;;;;4147756;28;20481;-83
2021/07/15 05:11:49;;;;;;;4.87;4.00;;;21.00;98.30;;;;;;4136660;28;20829;-83
2021/07/15 05:13:53;;;;;;;3.83;3.40;;;21.00;98.30;;;;;;4133194;28;20541;-84
2021/07/15 05:15:56;;;;;;;4.37;3.97;;;21.00;98.30;;;;;;4141726;28;20511;-83
2021/07/15 05:17:59;;;;;;;4.20;3.67;;;21.00;98.30;;;;;;4147634;28;20463;-83
2021/07/15 05:20:09;;;;;;;5.90;4.10;;;21.00;98.30;;;;;;4139968;28;20595;-82
2021/07/15 05:22:11;;;;;;;6.00;3.70;;;21.00;98.30;;;;;;4141033;28;20496;-83
2021/07/15 05:24:14;;;;;;;7.77;4.60;;;20.90;98.30;;;;;;4141324;28;20497;-82
2021/07/15 05:26:18;;;;;;;4.97;3.50;;;20.90;98.30;;;;;;4141036;28;20463;-83
2021/07/15 05:28:24;;;;;;;3.60;3.27;;;20.90;98.30;;;;;;4140710;28;20843;-82
2021/07/15 05:30:27;;;;;;;4.90;3.57;;;21.00;98.30;;;;;;4142358;28;20467;-83
2021/07/15 05:32:30;;;;;;;5.60;3.57;;;21.20;98.30;;;;;;4141102;28;20539;-83
2021/07/15 05:34:33;;;;;;;6.13;3.80;;;21.30;98.30;;;;;;4140199;28;20914;-83
2021/07/15 05:36:37;;;;;;;5.17;3.37;;;21.40;98.30;;;;;;4140012;28;20481;-83
2021/07/15 05:38:42;;;;;;;4.47;3.80;;;21.60;98.30;;;;;;4140796;28;20556;-84
2021/07/15 05:40:45;;;;;;;6.57;3.60;;;21.60;98.30;;;;;;4139577;28;20467;-84
2021/07/15 05:42:51;;;;;;;5.20;4.70;;;21.70;98.30;;;;;;4140251;28;20502;-84
2021/07/15 05:44:55;;;;;;;5.30;4.77;;;21.70;98.30;;;;;;4139244;28;20496;-83
2021/07/15 05:46:58;;;;;;;5.57;5.10;;;21.70;98.30;;;;;;4140003;28;20570;-83
2021/07/15 05:49:09;;;;;;;7.13;5.27;;;21.60;98.30;;;;;;4139799;28;20557;-83
2021/07/15 05:51:13;;;;;;;6.10;4.37;;;21.50;98.30;;;;;;4139812;28;20545;-83
2021/07/15 05:53:18;;;;;;;5.60;4.73;;;21.50;98.30;;;;;;4140181;28;20941;-84
2021/07/15 05:55:21;;;;;;;11.40;4.80;;;21.50;98.30;;;;;;4140410;28;20501;-83
2021/07/15 05:57:24;;;;;;;8.17;5.30;;;21.60;98.30;;;;;;4138586;28;20461;-83
2021/07/15 05:59:27;;;;;;;6.57;5.97;;;21.60;98.30;;;;;;4139095;28;20478;-83
2021/07/15 06:01:30;;;;;;;6.53;5.30;;;21.60;98.30;;;;;;4139319;28;20548;-83
2021/07/15 06:03:34;;;;;;;8.93;5.60;;;21.60;98.30;;;;;;4139987;28;20471;-83
2021/07/15 12:07:11;;;;;;;9.60;8.50;;;30.10;95.00;;;;;;4546486;23;20512;-82
2021/07/15 12:09:17;;;;;;;9.47;8.77;;;29.80;95.20;;;;;;4140286;28;20956;-82
2021/07/15 12:11:30;;;;;;;9.87;8.87;;;29.40;95.40;;;;;;4117820;28;20455;-82
2021/07/15 12:13:38;;;;;;;9.00;8.10;;;29.40;96.30;;;;;;4138291;28;20464;-83
2021/07/15 12:15:48;;;;;;;9.87;8.07;;;29.60;96.40;;;;;;4145353;28;20494;-82
2021/07/15 12:17:56;;;;;;;9.13;8.23;;;29.70;95.90;;;;;;4133788;28;20454;-82
2021/07/15 12:20:01;;;;;;;8.80;8.10;;;29.70;95.30;;;;;;4147637;28;20473;-82
2021/07/15 12:22:06;;;;;;;9.83;9.00;;;29.50;95.00;;;;;;4142572;28;20543;-82
2021/07/15 12:24:13;;;;;;;8.30;7.57;;;29.30;96.70;;;;;;4150233;28;20552;-82
2021/07/15 12:26:19;;;;;;;9.47;8.50;;;29.40;96.10;;;;;;4139707;28;20897;-82
2021/07/15 12:28:29;;;;;;;8.97;8.13;;;30.00;96.40;;;;;;4146582;28;20461;-82
2021/07/15 12:30:42;;;;;;;9.30;7.80;;;30.70;93.70;;;;;;4149305;28;20464;-83
2021/07/15 12:32:59;;;;;;;8.90;8.20;;;31.10;91.10;;;;;;4147096;28;20541;-82
2021/07/15 12:35:11;;;;;;;8.35;7.70;;;31.30;92.60;;;;;;4139529;28;20453;-82
2021/07/15 12:37:14;;;;;;;15.60;10.10;;;31.80;90.70;;;;;;4147109;28;20923;-83
2021/07/15 12:39:19;;;;;;;8.32;7.63;;;32.30;89.10;;;;;;4145624;28;20461;-82
2021/07/15 12:41:24;;;;;;;7.80;7.20;;;32.50;89.00;;;;;;4146398;28;20544;-82
2021/07/15 12:43:27;;;;;;;8.98;8.18;;;32.30;87.80;;;;;;4147918;28;20281;-82
2021/07/15 12:45:30;;;;;;;7.90;7.30;;;32.70;85.90;;;;;;4147231;28;20245;-82
2021/07/15 12:47:33;;;;;;;9.13;8.05;;;32.60;86.80;;;;;;4147341;28;20217;-82
2021/07/15 12:49:36;;;;;;;8.27;7.30;;;32.90;86.30;;;;;;4147953;28;20217;-82
2021/07/15 12:51:46;;;;;;;8.88;8.07;;;33.40;87.00;;;;;;4148047;28;20297;-82
2021/07/15 12:53:53;;;;;;;8.90;8.15;;;34.20;84.90;;;;;;4146806;28;20705;-83
2021/07/15 12:56:00;;;;;;;7.97;7.38;;;33.90;83.10;;;;;;4146075;28;20313;-82
2021/07/15 12:58:03;;;;;;;10.57;9.57;;;33.70;82.70;;;;;;4147817;28;20269;-83
2021/07/15 13:00:09;;;;;;;7.75;7.05;;;33.80;82.10;;;;;;4147829;28;20215;-82
2021/07/15 13:02:13;;;;;;;7.40;6.80;;;33.70;82.00;;;;;;4146841;28;20203;-82
2021/07/15 13:04:17;;;;;;;7.78;6.65;;;33.90;81.40;;;;;;4146898;28;20219;-83
2021/07/15 13:06:29;;;;;;;7.78;7.03;;;33.60;82.30;;;;;;4147538;28;20656;-82
2021/07/15 13:08:44;;;;;;;7.05;6.55;;;33.30;83.20;;;;;;4146228;28;20215;-82
2021/07/15 13:15:32;;;;;;;7.95;7.32;;;33.50;80.80;;;;;;4146588;28;20215;-82
2021/07/15 13:17:37;;;;;;;8.45;7.28;;;32.70;82.60;;;;;;4147780;28;20303;-82
2021/07/15 13:19:46;;;;;;;8.20;7.50;;;32.30;83.40;;;;;;4146682;28;20229;-82
2021/07/15 13:21:50;;;;;;;7.68;7.07;;;31.90;85.30;;;;;;4148186;28;20561;-82
2021/07/15 13:24:05;;;;;;;7.93;7.32;;;31.60;85.40;;;;;;4148117;28;20791;-82
2021/07/15 13:26:10;;;;;;;7.10;6.50;;;32.40;86.60;;;;;;4146474;28;20223;-82
2021/07/15 13:28:16;;;;;;;6.68;6.05;;;33.10;83.60;;;;;;4147808;28;20593;-82
2021/07/15 13:30:22;;;;;;;7.72;6.93;;;33.80;81.60;;;;;;4148040;28;20309;-82
2021/07/15 13:32:30;;;;;;;7.80;6.47;;;34.70;80.90;;;;;;4147283;28;20222;-82
2021/07/15 13:34:33;;;;;;;7.53;6.32;;;35.10;80.30;;;;;;4145371;28;20637;-82
2021/07/15 13:36:48;;;;;;;7.50;6.80;;;35.30;79.50;;;;;;4147399;28;20234;-82
2021/07/15 13:38:51;;;;;;;7.40;6.50;;;35.80;78.50;;;;;;4143979;28;20262;-82
2021/07/15 13:40:54;;;;;;;8.02;7.28;;;36.50;77.60;;;;;;4147296;28;20385;-82
2021/07/15 13:43:03;;;;;;;7.03;6.50;;;36.50;77.60;;;;;;4146986;28;20214;-82
2021/07/15 13:45:11;;;;;;;7.43;6.82;;;36.30;77.70;;;;;;4146162;28;20224;-82
2021/07/15 13:47:12;;;;;;;7.18;6.45;;;36.00;78.20;;;;;;4149550;28;20596;-82
2021/07/15 13:49:16;;;;;;;8.07;7.38;;;36.00;77.00;;;;;;4154742;28;20225;-82
2021/07/15 13:51:24;;;;;;;7.60;6.90;;;35.40;78.30;;;;;;4155027;28;20221;-82
2021/07/15 13:53:28;;;;;;;8.98;8.18;;;35.20;79.30;;;;;;4154513;28;20225;-82
2021/07/15 13:55:32;;;;;;;8.50;7.75;;;34.70;79.30;;;;;;4152794;28;20210;-82
2021/07/15 13:57:36;;;;;;;8.70;6.88;;;33.70;79.50;;;;;;4152387;28;20293;-82
2021/07/15 13:59:40;;;;;;;7.43;6.72;;;33.70;81.70;;;;;;4148433;28;20217;-82
2021/07/15 14:01:44;;;;;;;7.45;6.93;;;33.90;82.20;;;;;;4146428;28;20283;-82
2021/07/15 14:03:49;;;;;;;8.77;7.97;;;34.20;81.30;;;;;;4147387;28;20230;-82
2021/07/15 14:05:54;;;;;;;8.20;7.50;;;34.60;80.80;;;;;;4147568;28;20313;-82
2021/07/15 14:07:58;;;;;;;8.15;7.55;;;34.70;79.70;;;;;;4147313;28;20564;-82
2021/07/15 14:10:07;;;;;;;6.90;6.40;;;35.00;79.80;;;;;;4146324;28;20696;-82
2021/07/15 14:12:12;;;;;;;7.50;6.90;;;36.10;77.00;;;;;;4147929;28;20665;-82
2021/07/15 14:14:16;;;;;;;8.10;7.30;;;36.40;77.40;;;;;;4148856;28;20242;-82
2021/07/15 14:16:19;;;;;;;8.63;7.88;;;36.10;76.90;;;;;;4147526;28;20241;-82
2021/07/15 14:18:27;;;;;;;8.05;7.45;;;35.30;78.10;;;;;;4148848;28;20218;-81
2021/07/15 14:20:31;;;;;;;8.27;7.57;;;34.70;79.70;;;;;;4152127;28;20229;-82
2021/07/15 14:22:34;;;;;;;8.77;7.82;;;34.50;79.40;;;;;;4153594;28;20242;-82
2021/07/15 14:24:37;;;;;;;9.07;7.70;;;34.20;79.70;;;;;;4151882;28;20278;-82
2021/07/15 14:26:50;;;;;;;9.00;7.65;;;33.60;82.60;;;;;;4154913;28;20234;-82
2021/07/15 14:28:54;;;;;;;9.68;8.75;;;33.90;81.40;;;;;;4156243;28;20214;-81
2021/07/15 14:30:57;;;;;;;8.48;7.70;;;34.00;81.90;;;;;;4155212;28;20219;-81
2021/07/15 14:33:02;;;;;;;9.27;8.30;;;34.50;80.70;;;;;;4154063;28;20627;-82
2021/07/15 14:35:07;;;;;;;7.85;7.25;;;34.20;82.40;;;;;;4152268;28;20301;-82
2021/07/15 14:37:11;;;;;;;8.10;7.40;;;33.90;82.20;;;;;;4146526;28;20234;-82
2021/07/15 14:39:14;;;;;;;10.65;9.77;;;33.60;82.50;;;;;;4145931;28;20222;-82
2021/07/15 14:41:19;;;;;;;10.18;9.27;;;33.50;81.70;;;;;;4146938;28;20548;-82
2021/07/15 14:43:23;;;;;;;8.75;8.00;;;33.40;83.00;;;;;;4147078;28;20213;-82
2021/07/15 14:45:26;;;;;;;10.77;9.15;;;33.00;82.70;;;;;;4146982;28;20501;-82
2021/07/15 14:47:29;;;;;;;13.35;11.25;;;32.60;82.40;;;;;;4146517;28;20480;-82
2021/07/15 14:49:32;;;;;;;11.25;9.65;;;32.10;84.70;;;;;;4146116;28;20476;-82
2021/07/15 14:51:36;;;;;;;13.43;12.20;;;31.80;85.50;;;;;;4146030;28;20466;-81
2021/07/15 14:53:40;;;;;;;12.45;11.30;;;31.60;86.80;;;;;;4145310;28;20489;-82
2021/07/15 14:55:42;;;;;;;17.05;15.55;;;31.40;87.50;;;;;;4145891;28;20501;-84
2021/07/15 14:57:45;;;;;;;11.70;10.70;;;31.50;88.90;;;;;;4144939;28;20474;-83
2021/07/15 14:59:48;;;;;;;8.87;8.07;;;31.70;88.10;;;;;;4140817;28;20501;-83
2021/07/15 15:01:52;;;;;;;9.10;8.30;;;31.80;86.60;;;;;;4138787;28;20473;-83
2021/07/15 15:03:55;;;;;;;9.37;8.60;;;31.30;86.10;;;;;;4140049;28;21299;-83
2021/07/15 15:05:58;;;;;;;8.30;7.60;;;31.10;86.00;;;;;;4137232;28;20513;-83
2021/07/15 15:08:02;;;;;;;19.50;17.50;;;31.00;86.70;;;;;;4142591;28;20473;-83
2021/07/15 15:10:06;;;;;;;10.23;9.33;;;30.90;86.20;;;;;;4146178;28;20469;-83
2021/07/15 15:12:10;;;;;;;12.03;10.83;;;30.90;87.70;;;;;;4147172;28;20485;-83
2021/07/15 15:14:13;;;;;;;12.00;10.90;;;30.90;87.40;;;;;;4146541;28;20493;-84
2021/07/15 15:16:16;;;;;;;13.47;12.23;;;30.90;89.10;;;;;;4145421;28;20570;-81
2021/07/15 15:18:19;;;;;;;11.00;9.83;;;30.80;90.00;;;;;;4144065;28;20532;-82
2021/07/15 15:20:22;;;;;;;9.60;8.60;;;31.00;88.00;;;;;;4147589;28;20472;-82
2021/07/15 15:22:25;;;;;;;9.20;8.30;;;30.80;88.00;;;;;;4145818;28;20517;-82
2021/07/15 15:24:29;;;;;;;9.23;8.43;;;30.40;88.00;;;;;;4148486;28;20473;-82
2021/07/15 15:26:32;;;;;;;9.43;8.57;;;30.20;88.00;;;;;;4148230;28;20501;-82
2021/07/15 15:28:35;;;;;;;9.83;8.53;;;30.00;88.50;;;;;;4145307;28;20462;-81
2021/07/15 15:30:39;;;;;;;9.17;8.37;;;29.90;88.70;;;;;;4148306;28;20469;-82
2021/07/15 15:32:42;;;;;;;9.87;8.87;;;29.90;89.70;;;;;;4144164;28;21036;-82
2021/07/15 15:34:45;;;;;;;12.47;9.50;;;29.90;89.50;;;;;;4148536;28;20485;-82
2021/07/15 15:36:48;;;;;;;10.83;9.47;;;30.00;90.60;;;;;;4146028;28;20485;-82
2021/07/15 15:38:51;;;;;;;12.40;11.30;;;30.10;91.80;;;;;;4147838;28;20476;-83
2021/07/15 15:40:55;;;;;;;12.00;11.00;;;30.00;93.80;;;;;;4144337;28;20503;-82
2021/07/15 15:42:58;;;;;;;13.43;12.33;;;30.10;95.60;;;;;;4146650;28;20469;-81
2021/07/15 15:45:02;;;;;;;14.60;13.40;;;30.10;96.60;;;;;;4145532;28;20466;-81
2021/07/15 15:47:08;;;;;;;14.67;12.90;;;30.00;97.40;;;;;;4146430;28;21077;-81
2021/07/15 15:49:11;;;;;;;16.37;14.77;;;29.90;97.80;;;;;;4156349;28;20580;-82
2021/07/15 15:51:14;;;;;;;14.43;13.07;;;29.80;98.30;;;;;;4155122;28;20529;-81
2021/07/15 15:53:17;;;;;;;15.13;13.83;;;29.70;98.30;;;;;;4156449;28;20457;-81
2021/07/15 15:55:20;;;;;;;16.20;14.80;;;29.60;98.30;;;;;;4154583;28;20540;-82
2021/07/15 15:57:25;;;;;;;16.00;14.73;;;29.70;98.30;;;;;;4154197;28;20490;-81
2021/07/15 15:59:28;;;;;;;15.37;13.97;;;29.70;98.30;;;;;;4158239;28;20471;-81
2021/07/15 16:01:31;;;;;;;17.27;14.90;;;29.60;98.30;;;;;;4151389;28;20553;-84
2021/07/15 16:03:35;;;;;;;14.53;13.23;;;29.70;98.30;;;;;;4136687;28;20558;-82
2021/07/15 16:05:39;;;;;;;14.60;13.20;;;29.60;98.30;;;;;;4146671;28;20481;-82
2021/07/15 16:07:43;;;;;;;16.27;14.67;;;29.60;98.30;;;;;;4143811;28;20957;-82
2021/07/15 16:09:46;;;;;;;15.17;13.70;;;29.50;98.30;;;;;;4136073;28;20885;-82
2021/07/15 16:11:49;;;;;;;14.03;12.73;;;29.50;98.30;;;;;;4145391;28;20479;-81
2021/07/15 16:13:54;;;;;;;15.40;14.00;;;29.50;98.30;;;;;;4144333;28;20981;-81
2021/07/15 16:15:58;;;;;;;14.20;12.97;;;29.50;98.30;;;;;;4143673;28;20867;-81
2021/07/15 16:18:01;;;;;;;14.90;13.60;;;29.30;98.30;;;;;;4147917;28;20837;-82
2021/07/15 16:20:08;;;;;;;15.47;14.17;;;29.20;98.30;;;;;;4147054;28;20475;-81
2021/07/15 16:22:11;;;;;;;13.60;12.30;;;29.10;98.30;;;;;;4151337;28;20470;-82
2021/07/15 16:24:13;;;;;;;18.03;14.27;;;29.10;98.30;;;;;;4148446;28;21013;-81
2021/07/15 16:26:29;;;;;;;14.10;12.80;;;29.00;98.30;;;;;;4149808;28;20493;-82
2021/07/15 16:28:32;;;;;;;14.20;12.97;;;28.90;98.30;;;;;;4145489;28;20945;-81
2021/07/15 16:30:37;;;;;;;17.50;13.50;;;28.80;98.30;;;;;;4147086;28;20466;-81
2021/07/15 16:32:40;;;;;;;14.57;13.27;;;28.70;98.30;;;;;;4147540;28;20846;-81
2021/07/15 16:34:43;;;;;;;14.80;13.50;;;28.60;98.30;;;;;;4150959;28;20548;-81
2021/07/15 16:36:46;;;;;;;15.80;14.30;;;28.60;98.30;;;;;;4145642;28;20493;-81
2021/07/15 16:38:49;;;;;;;17.70;15.87;;;28.50;98.30;;;;;;4147250;28;20462;-81
2021/07/15 16:40:52;;;;;;;15.93;14.40;;;28.50;98.30;;;;;;4145562;28;20459;-81
2021/07/15 16:42:55;;;;;;;18.10;16.27;;;28.50;98.30;;;;;;4148273;28;20565;-81
2021/07/15 16:44:58;;;;;;;16.17;14.47;;;28.20;98.30;;;;;;4148443;28;20497;-81
2021/07/15 16:47:03;;;;;;;15.83;14.43;;;27.80;98.30;;;;;;4148906;28;21340;-81
2021/07/15 16:49:06;;;;;;;19.10;17.20;;;27.30;98.30;;;;;;4148656;28;20557;-81
2021/07/15 16:51:09;;;;;;;18.67;16.97;;;27.00;98.30;;;;;;4148781;28;20477;-81
2021/07/15 16:53:12;;;;;;;18.93;17.10;;;26.80;98.30;;;;;;4147903;28;20470;-81
2021/07/15 16:55:17;;;;;;;19.57;17.57;;;26.70;98.30;;;;;;4148941;28;20490;-81